Time;durP1;ratioP1;P1;durP2;ratioP2;P2;SDS_P1;SDS_P2;PMS_P1;PMS_P2;Temp;Humidity;BMP_temperature;BMP_pressure;BME280_temperature;BME280_humidity;BME280_pressure;Samples;Min_cycle;Max_cycle;Signal;HPM_P1;HPM_P2
2021/04/15 00:01:34;;;;;;;41.55;36.63;;;;;;;3.87;71.33;100371.00;4949309;28;20058;-72
2021/04/15 00:04:00;;;;;;;41.30;33.90;;;;;;;3.90;71.30;100368.22;4950694;29;20051;-71
2021/04/15 00:06:29;;;;;;;41.40;32.80;;;;;;;3.99;71.03;100362.59;4950561;28;20051;-70
2021/04/15 00:08:57;;;;;;;41.00;36.95;;;;;;;3.98;71.38;100360.06;4951192;29;20057;-70
2021/04/15 00:11:27;;;;;;;39.13;34.03;;;;;;;4.06;71.38;100365.81;4951022;28;20135;-72
2021/04/15 00:13:56;;;;;;;38.30;34.20;;;;;;;4.12;71.22;100359.47;4949686;29;20055;-70
2021/04/15 00:16:24;;;;;;;38.90;35.08;;;;;;;4.12;71.25;100355.06;4950053;29;20063;-70
2021/04/15 00:18:51;;;;;;;36.15;32.55;;;;;;;4.14;71.32;100349.78;4932089;29;20047;-70
2021/04/15 00:21:19;;;;;;;38.22;34.58;;;;;;;4.20;71.16;100354.75;4941531;29;20063;-71
2021/04/15 00:23:45;;;;;;;32.63;29.33;;;;;;;4.19;71.34;100353.03;4931550;29;20043;-71
2021/04/15 00:26:15;;;;;;;31.00;28.10;;;;;;;4.21;71.26;100346.84;4931581;29;20603;-70
2021/04/15 00:28:42;;;;;;;25.83;23.10;;;;;;;4.27;71.00;100350.06;4933325;29;20051;-72
2021/04/15 00:31:10;;;;;;;24.20;21.48;;;;;;;4.29;71.49;100343.88;4913747;29;20052;-72
2021/04/15 00:33:37;;;;;;;19.80;17.70;;;;;;;4.33;70.96;100344.59;4931025;29;20499;-73
2021/04/15 00:36:04;;;;;;;19.27;17.63;;;;;;;4.31;70.84;100342.03;4930910;29;20493;-72
2021/04/15 00:38:31;;;;;;;17.60;15.95;;;;;;;4.28;71.16;100347.41;4931702;29;20047;-71
2021/04/15 00:40:59;;;;;;;17.05;15.45;;;;;;;4.30;70.99;100342.09;4930781;29;20511;-71
2021/04/15 00:43:28;;;;;;;17.30;15.85;;;;;;;4.34;70.90;100343.66;4930508;29;20055;-71
2021/04/15 00:45:56;;;;;;;17.02;15.32;;;;;;;4.33;70.94;100342.81;4930681;29;20125;-70
2021/04/15 00:48:33;;;;;;;17.38;15.65;;;;;;;4.34;71.31;100335.81;4929963;29;20052;-71
2021/04/15 00:51:03;;;;;;;15.50;14.00;;;;;;;4.33;71.03;100337.59;4937300;29;20095;-70
2021/04/15 00:53:34;;;;;;;17.25;15.05;;;;;;;4.37;71.06;100335.69;4949802;29;20047;-73
2021/04/15 00:56:01;;;;;;;16.67;15.07;;;;;;;4.42;70.87;100330.25;4949239;29;20091;-73
2021/04/15 00:58:28;;;;;;;17.52;15.80;;;;;;;4.37;70.76;100335.69;4949795;29;20051;-70
2021/04/15 01:00:55;;;;;;;18.92;13.77;;;;;;;4.39;70.87;100332.09;4947489;29;20043;-70
2021/04/15 01:03:22;;;;;;;16.42;14.15;;;;;;;4.40;70.81;100340.78;4948553;29;20062;-70
2021/04/15 01:05:50;;;;;;;17.90;16.10;;;;;;;4.39;71.04;100337.31;4949476;29;20428;-71
2021/04/15 01:08:17;;;;;;;18.05;15.40;;;;;;;4.39;71.14;100326.84;4940534;29;20098;-72
2021/04/15 01:10:50;;;;;;;16.75;15.25;;;;;;;4.43;71.04;100326.69;4928798;29;20052;-71
2021/04/15 01:13:34;;;;;;;16.70;15.20;;;;;;;4.46;71.29;100323.94;4931038;29;20059;-71
2021/04/15 01:16:11;;;;;;;16.45;13.90;;;;;;;4.47;71.32;100318.66;4929929;29;20119;-71
2021/04/15 01:18:45;;;;;;;15.50;14.10;;;;;;;4.47;70.93;100318.66;4929633;29;20118;-70
2021/04/15 01:21:29;;;;;;;16.60;14.90;;;;;;;4.45;70.92;100325.72;4938249;29;20050;-71
2021/04/15 01:24:03;;;;;;;16.48;14.88;;;;;;;4.46;71.19;100316.94;4948018;29;20063;-71
2021/04/15 01:27:00;;;;;;;15.48;13.82;;;;;;;4.48;70.98;100316.88;4949085;29;20074;-71
2021/04/15 01:29:36;;;;;;;13.23;11.93;;;;;;;4.52;70.77;100310.56;4947879;29;20051;-71
2021/04/15 01:32:13;;;;;;;12.90;11.60;;;;;;;4.51;70.57;100314.13;4948690;29;20046;-71
2021/04/15 01:34:46;;;;;;;14.60;12.80;;;;;;;4.48;70.51;100309.03;4949545;29;20055;-72
2021/04/15 01:37:21;;;;;;;15.05;12.68;;;;;;;4.47;70.58;100307.34;4949021;29;20063;-71
2021/04/15 01:39:53;;;;;;;13.73;12.32;;;;;;;4.44;70.73;100305.72;4948285;29;20051;-72
2021/04/15 01:42:28;;;;;;;13.48;11.32;;;;;;;4.44;70.84;100299.63;4948462;29;20521;-71
2021/04/15 01:44:58;;;;;;;12.00;10.75;;;;;;;4.44;71.00;100303.09;4948070;29;20047;-72
2021/04/15 01:47:29;;;;;;;14.70;12.43;;;;;;;4.48;71.00;100299.41;4948757;29;20055;-71
2021/04/15 01:50:01;;;;;;;13.02;11.70;;;;;;;4.48;70.91;100304.63;4949202;29;20047;-71
2021/04/15 01:52:30;;;;;;;11.75;10.55;;;;;;;4.49;70.93;100289.81;4948642;29;20054;-72
2021/04/15 01:55:01;;;;;;;14.10;11.52;;;;;;;4.51;70.52;100294.03;4948512;29;20047;-72
2021/04/15 01:57:34;;;;;;;14.75;13.15;;;;;;;4.52;70.91;100290.53;4948561;29;20058;-71
2021/04/15 02:00:06;;;;;;;17.45;12.73;;;;;;;4.48;71.10;100288.09;4946472;29;20058;-72
2021/04/15 02:02:39;;;;;;;13.93;12.50;;;;;;;4.52;70.65;100273.97;4948941;29;20054;-71
2021/04/15 02:05:11;;;;;;;13.93;12.43;;;;;;;4.36;71.24;100286.94;4948077;28;20118;-71
2021/04/15 02:07:43;;;;;;;14.07;11.60;;;;;;;4.36;71.61;100285.16;4947690;29;20059;-69
2021/04/15 02:10:12;;;;;;;15.15;13.55;;;;;;;4.35;71.62;100283.44;4948196;29;20083;-69
2021/04/15 02:12:43;;;;;;;12.13;10.20;;;;;;;4.36;70.99;100279.09;4948090;28;20055;-70
2021/04/15 02:15:18;;;;;;;13.27;11.95;;;;;;;4.33;71.34;100282.66;4947499;29;20138;-70
2021/04/15 02:17:44;;;;;;;15.38;12.88;;;;;;;4.31;71.36;100271.44;4947987;29;20596;-70
2021/04/15 02:20:14;;;;;;;15.23;13.60;;;;;;;4.32;71.59;100273.16;4947982;29;20047;-71
2021/04/15 02:22:47;;;;;;;12.95;11.00;;;;;;;4.31;71.62;100268.81;4929140;29;20044;-70
2021/04/15 02:25:19;;;;;;;14.25;12.27;;;;;;;4.34;71.37;100268.69;4929616;29;20044;-71
2021/04/15 02:27:56;;;;;;;15.18;11.88;;;;;;;4.32;71.54;100267.91;4929424;29;20047;-71
2021/04/15 02:30:28;;;;;;;15.50;13.93;;;;;;;4.32;71.37;100267.06;4926644;29;20073;-70
2021/04/15 02:33:03;;;;;;;16.42;14.32;;;;;;;4.32;71.39;100267.91;4928817;29;20047;-70
2021/04/15 02:35:35;;;;;;;16.93;15.13;;;;;;;4.28;71.47;100265.50;4928035;29;20052;-71
2021/04/15 02:38:03;;;;;;;15.80;14.30;;;;;;;4.28;71.31;100260.28;4928766;29;20050;-69
2021/04/15 02:40:33;;;;;;;16.90;15.10;;;;;;;4.27;71.29;100264.66;4928578;29;20047;-70
2021/04/15 02:43:02;;;;;;;16.65;14.88;;;;;;;4.28;71.32;100265.50;4928319;29;20083;-70
2021/04/15 02:45:37;;;;;;;17.13;14.75;;;;;;;4.27;71.47;100258.56;4928993;29;20136;-71
2021/04/15 02:48:10;;;;;;;19.40;17.33;;;;;;;4.35;71.24;100251.22;4928827;29;20143;-71
2021/04/15 02:50:38;;;;;;;20.95;18.85;;;;;;;4.46;70.83;100253.34;4931062;29;20071;-70
2021/04/15 02:53:12;;;;;;;21.15;19.05;;;;;;;4.48;70.93;100257.56;4948448;29;20078;-71
2021/04/15 02:55:46;;;;;;;21.40;19.10;;;;;;;4.57;70.66;100245.81;4947692;29;20126;-69
2021/04/15 02:58:21;;;;;;;24.25;21.73;;;;;;;4.53;70.71;100246.91;4947979;29;20047;-70
2021/04/15 03:00:51;;;;;;;26.88;20.77;;;;;;;4.61;70.53;100252.63;4945411;29;20053;-70
2021/04/15 03:03:23;;;;;;;27.67;24.63;;;;;;;4.60;70.57;100240.44;4947628;29;20058;-71
2021/04/15 03:05:56;;;;;;;30.42;27.33;;;;;;;4.62;70.58;100238.59;4947158;29;20316;-70
2021/04/15 03:08:25;;;;;;;32.63;29.52;;;;;;;4.58;70.36;100239.69;4947815;29;20051;-70
2021/04/15 03:10:56;;;;;;;30.88;27.58;;;;;;;4.56;70.54;100244.16;4947191;28;20511;-72
2021/04/15 03:13:25;;;;;;;37.28;33.63;;;;;;;4.47;70.95;100239.34;4947913;29;20500;-70
2021/04/15 03:15:58;;;;;;;33.13;26.48;;;;;;;4.49;71.26;100237.50;4946927;29;20629;-71
2021/04/15 03:18:33;;;;;;;36.03;31.80;;;;;;;4.52;71.26;100243.44;4947942;29;20353;-70
2021/04/15 03:21:04;;;;;;;35.42;29.52;;;;;;;4.54;70.95;100238.97;4949267;29;20282;-71
2021/04/15 03:23:38;;;;;;;39.47;33.50;;;;;;;4.51;71.15;100241.72;4940965;28;20064;-71
2021/04/15 03:26:27;;;;;;;37.20;32.03;;;;;;;4.57;71.01;100237.97;4938988;28;20044;-70
2021/04/15 03:29:04;;;;;;;35.55;31.55;;;;;;;4.46;71.07;100246.34;4941353;28;20051;-70
2021/04/15 03:31:42;;;;;;;32.83;29.05;;;;;;;4.33;71.32;100238.22;4940514;28;20051;-71
2021/04/15 03:34:14;;;;;;;32.95;29.52;;;;;;;4.31;71.64;100241.84;4941207;28;20102;-71
2021/04/15 03:36:44;;;;;;;37.35;29.52;;;;;;;4.29;71.88;100244.53;4940171;28;20047;-71
2021/04/15 03:39:17;;;;;;;33.28;29.85;;;;;;;4.29;71.75;100241.06;4941012;28;20047;-71
2021/04/15 03:41:46;;;;;;;34.50;25.52;;;;;;;4.32;71.88;100247.00;4943136;28;20047;-72
2021/04/15 03:44:19;;;;;;;35.17;31.35;;;;;;;4.36;71.86;100247.72;4939715;29;20060;-71
2021/04/15 03:46:53;;;;;;;32.15;25.52;;;;;;;4.35;71.81;100246.84;4941226;29;20134;-70
2021/04/15 03:49:23;;;;;;;30.20;27.13;;;;;;;4.34;71.75;100246.91;4941919;29;20054;-71
2021/04/15 03:51:58;;;;;;;30.77;27.98;;;;;;;4.35;71.53;100241.59;4944705;29;20043;-71
2021/04/15 03:54:29;;;;;;;26.83;24.37;;;;;;;4.35;71.43;100240.78;4943104;29;20044;-71
2021/04/15 03:56:57;;;;;;;30.52;27.52;;;;;;;4.29;71.71;100248.91;4946733;29;20066;-71
2021/04/15 03:59:39;;;;;;;28.95;25.88;;;;;;;4.39;71.42;100242.31;4945541;29;20044;-73
2021/04/15 04:02:12;;;;;;;28.70;26.00;;;;;;;4.48;71.00;100249.72;4944080;29;20054;-72
2021/04/15 04:04:42;;;;;;;25.92;22.60;;;;;;;4.43;71.24;100243.00;4931945;29;20068;-72
2021/04/15 04:07:16;;;;;;;21.83;19.75;;;;;;;4.45;71.15;100230.72;4931899;29;20128;-72
2021/04/15 04:09:48;;;;;;;20.42;18.33;;;;;;;4.35;71.43;100241.59;4932421;29;20116;-72
2021/04/15 04:12:25;;;;;;;18.58;16.58;;;;;;;4.30;71.46;100232.28;4933454;29;20051;-72
2021/04/15 04:14:56;;;;;;;18.40;16.60;;;;;;;4.28;71.56;100245.44;4930656;29;20058;-72
2021/04/15 04:17:31;;;;;;;20.60;18.80;;;;;;;4.28;71.52;100240.19;4930855;29;20485;-72
2021/04/15 04:19:58;;;;;;;16.90;15.38;;;;;;;4.28;71.47;100249.81;4930894;29;20156;-71
2021/04/15 04:22:44;;;;;;;14.75;13.27;;;;;;;4.23;71.54;100231.72;4947216;29;20047;-73
2021/04/15 04:25:17;;;;;;;13.95;12.75;;;;;;;4.25;71.32;100245.59;4950121;29;20548;-71
2021/04/15 04:27:50;;;;;;;11.55;10.63;;;;;;;4.34;70.59;100237.31;4948598;29;20051;-71
2021/04/15 04:30:22;;;;;;;13.85;12.55;;;;;;;4.19;71.44;100246.69;4946569;29;20047;-74
2021/04/15 04:32:56;;;;;;;12.00;10.90;;;;;;;4.18;71.33;100244.19;4947677;29;20126;-74
2021/04/15 04:35:27;;;;;;;11.63;9.48;;;;;;;4.13;71.58;100248.75;4948625;29;20397;-70
2021/04/15 04:37:56;;;;;;;12.90;11.60;;;;;;;4.11;71.68;100243.59;4948177;29;20055;-71
2021/04/15 04:40:28;;;;;;;12.93;11.68;;;;;;;4.12;71.73;100244.44;4947095;29;20596;-71
2021/04/15 04:42:58;;;;;;;14.05;11.90;;;;;;;4.14;71.77;100253.06;4947650;29;20138;-72
2021/04/15 04:45:25;;;;;;;14.90;10.68;;;;;;;4.16;71.99;100251.22;4947071;29;20055;-70
2021/04/15 04:47:58;;;;;;;12.73;11.48;;;;;;;4.19;71.74;100251.91;4946144;28;20062;-70
2021/04/15 04:50:42;;;;;;;10.55;9.48;;;;;;;4.13;71.47;100247.00;4950701;29;20043;-71
2021/04/15 04:53:11;;;;;;;11.63;9.57;;;;;;;4.11;71.65;100248.00;4931049;29;20059;-70
2021/04/15 04:55:42;;;;;;;10.35;9.27;;;;;;;4.13;71.60;100246.16;4929083;29;20044;-71
2021/04/15 04:58:11;;;;;;;11.57;9.98;;;;;;;4.10;71.44;100244.50;4931212;29;20044;-72
2021/04/15 05:00:43;;;;;;;11.15;10.05;;;;;;;4.13;71.65;100243.53;4929540;29;20420;-72
2021/04/15 05:03:11;;;;;;;10.73;9.63;;;;;;;4.16;71.46;100246.00;4929906;29;20048;-72
2021/04/15 05:05:37;;;;;;;11.43;10.27;;;;;;;4.16;71.35;100240.75;4929165;28;20646;-71
2021/04/15 05:08:06;;;;;;;13.52;11.07;;;;;;;4.14;71.67;100237.38;4929901;29;20052;-72
2021/04/15 05:10:34;;;;;;;12.15;10.88;;;;;;;4.15;71.81;100244.31;4932164;29;20055;-71
2021/04/15 05:13:11;;;;;;;14.07;10.57;;;;;;;4.18;71.65;100246.78;4930417;29;20052;-71
2021/04/15 05:15:39;;;;;;;15.65;11.35;;;;;;;4.18;71.52;100237.19;4930143;29;20113;-73
2021/04/15 05:18:06;;;;;;;14.75;11.35;;;;;;;4.18;71.60;100252.84;4928552;29;20521;-72
2021/04/15 05:20:34;;;;;;;11.35;10.07;;;;;;;4.18;71.26;100239.78;4931626;29;20043;-71
2021/04/15 05:23:07;;;;;;;12.32;10.77;;;;;;;4.18;71.43;100244.19;4948736;29;20082;-72
2021/04/15 05:25:39;;;;;;;12.60;10.63;;;;;;;4.15;71.40;100244.31;4947722;28;20243;-71
2021/04/15 05:28:10;;;;;;;12.05;10.85;;;;;;;4.14;71.16;100242.59;4947757;29;20047;-72
2021/04/15 05:30:40;;;;;;;14.07;11.98;;;;;;;4.24;71.28;100249.09;4946756;29;20065;-71
2021/04/15 05:33:13;;;;;;;15.55;12.15;;;;;;;4.31;70.94;100244.44;4947018;29;20058;-71
2021/04/15 05:35:44;;;;;;;14.63;12.27;;;;;;;4.44;70.79;100244.72;4946304;29;20049;-72
2021/04/15 05:38:13;;;;;;;17.40;13.95;;;;;;;4.47;70.54;100234.97;4948049;29;20065;-71
2021/04/15 05:40:40;;;;;;;15.27;13.15;;;;;;;4.46;70.11;100235.03;4946377;29;20051;-74
2021/04/15 05:43:27;;;;;;;13.05;11.73;;;;;;;4.44;70.56;100240.31;4944716;29;20051;-70
2021/04/15 05:46:01;;;;;;;12.52;11.25;;;;;;;4.47;70.29;100236.75;4944775;29;20112;-71
2021/04/15 05:48:28;;;;;;;12.18;10.00;;;;;;;4.44;70.31;100240.31;4942488;29;20527;-70
2021/04/15 05:50:57;;;;;;;11.48;10.30;;;;;;;4.48;70.28;100235.81;4939568;29;20662;-71
2021/04/15 05:53:33;;;;;;;13.23;11.60;;;;;;;4.46;70.12;100240.25;4926446;29;20227;-70
2021/04/15 05:56:04;;;;;;;;;;;;;;;4.63;69.96;100231.59;4925746;29;20048;-71
2021/04/15 05:58:35;;;;;;;13.82;11.10;;;;;;;4.48;70.16;100236.63;4923028;29;20603;-70
2021/04/15 06:01:08;;;;;;;12.40;11.10;;;;;;;4.45;70.57;100230.72;4929269;29;20051;-71
2021/04/15 06:03:44;;;;;;;10.65;8.93;;;;;;;4.46;70.16;100235.03;4934076;29;20216;-70
2021/04/15 06:06:18;;;;;;;10.32;9.23;;;;;;;4.45;70.39;100228.97;4932181;29;20059;-69
2021/04/15 06:08:49;;;;;;;8.77;7.90;;;;;;;4.48;69.83;100235.81;4916210;29;20134;-73
2021/04/15 06:11:52;;;;;;;11.07;9.98;;;;;;;4.47;69.97;100234.13;4937698;29;20058;-72
2021/04/15 06:14:26;;;;;;;10.45;9.00;;;;;;;4.50;69.86;100233.97;4937168;29;20048;-71
2021/04/15 06:17:18;;;;;;;12.32;9.55;;;;;;;4.48;70.08;100225.34;4934037;29;20102;-73
2021/04/15 06:19:50;;;;;;;10.40;8.23;;;;;;;4.54;70.17;100225.06;4933785;29;20047;-72
2021/04/15 06:22:20;;;;;;;14.48;11.23;;;;;;;4.59;70.10;100220.44;4937004;29;20085;-72
2021/04/15 06:24:50;;;;;;;15.48;11.02;;;;;;;4.69;70.38;100229.53;4937749;29;20107;-72
2021/04/15 06:27:19;;;;;;;19.35;15.02;;;;;;;4.69;70.21;100219.06;4937415;29;20066;-73
2021/04/15 06:29:53;;;;;;;16.23;13.27;;;;;;;4.71;70.04;100222.47;4936539;29;20055;-74
2021/04/15 06:32:28;;;;;;;16.63;13.90;;;;;;;4.74;70.04;100213.63;4920621;29;20055;-73
2021/04/15 06:34:56;;;;;;;16.13;13.45;;;;;;;4.73;70.04;100220.63;4937621;29;20074;-73
2021/04/15 06:37:39;;;;;;;12.77;11.48;;;;;;;4.72;69.58;100213.69;4938799;29;20119;-73
2021/04/15 06:40:57;;;;;;;10.15;8.57;;;;;;;4.72;69.40;100215.47;4921490;29;20465;-75
2021/04/15 06:43:43;;;;;;;14.18;11.43;;;;;;;4.67;69.80;100218.31;4935618;29;20050;-73
2021/04/15 06:46:26;;;;;;;11.52;10.10;;;;;;;4.75;69.97;100213.56;4931233;29;20080;-74
2021/04/15 06:49:08;;;;;;;15.70;12.55;;;;;;;4.83;69.79;100214.97;4929775;29;20233;-76
2021/04/15 06:51:46;;;;;;;22.80;19.67;;;;;;;4.86;69.64;100214.78;4933651;29;20079;-73
2021/04/15 06:54:43;;;;;;;22.05;17.35;;;;;;;4.86;69.57;100215.66;4936707;29;20102;-75
2021/04/15 06:57:34;;;;;;;15.02;11.07;;;;;;;4.84;69.81;100221.88;4919418;29;20043;-76
2021/04/15 07:00:16;;;;;;;13.65;9.90;;;;;;;4.84;69.69;100221.88;4933816;29;20625;-76
2021/04/15 07:03:06;;;;;;;15.27;13.68;;;;;;;4.85;69.67;100218.34;4939091;29;20075;-76
2021/04/15 07:05:39;;;;;;;10.60;8.98;;;;;;;4.90;69.36;100226.81;4919116;29;20063;-76
2021/04/15 07:08:13;;;;;;;15.50;10.60;;;;;;;4.87;69.55;100222.56;4922238;29;20052;-78
2021/04/15 07:10:55;;;;;;;10.18;8.85;;;;;;;4.85;69.33;100220.97;4923863;29;20056;-76
2021/04/15 07:13:55;;;;;;;10.60;8.57;;;;;;;4.81;69.29;100224.63;4920094;29;20524;-76
2021/04/15 07:16:59;;;;;;;18.45;15.23;;;;;;;4.83;69.58;100220.19;4919824;29;20054;-73
2021/04/15 07:19:59;;;;;;;20.60;14.27;;;;;;;4.99;69.57;100226.34;4927163;28;20036;-74
2021/04/15 07:23:08;;;;;;;18.45;15.13;;;;;;;5.05;69.38;100223.41;4932761;29;20036;-74
2021/04/15 07:25:58;;;;;;;17.88;12.73;;;;;;;5.07;69.29;100226.81;4873185;29;20049;-73
2021/04/15 07:28:52;;;;;;;16.88;12.48;;;;;;;5.04;69.17;100240.06;4874491;29;20089;-68
2021/04/15 07:31:50;;;;;;;15.52;11.15;;;;;;;5.06;69.34;100229.50;4870049;29;20080;-71
2021/04/15 07:34:39;;;;;;;17.42;12.18;;;;;;;5.10;69.15;100224.03;4869216;29;20049;-74
2021/04/15 07:37:20;;;;;;;15.00;11.13;;;;;;;5.12;69.15;100224.81;4870806;29;20130;-71
2021/04/15 07:40:33;;;;;;;16.08;12.50;;;;;;;5.22;69.31;100227.81;4874617;29;20045;-73
2021/04/15 07:43:12;;;;;;;17.05;10.38;;;;;;;5.38;69.27;100221.78;4892009;29;20048;-74
2021/04/15 07:45:51;;;;;;;16.45;11.90;;;;;;;5.48;69.07;100223.00;4899827;29;20036;-75
2021/04/15 07:48:52;;;;;;;20.33;15.38;;;;;;;5.57;68.83;100226.94;4901317;29;20072;-71
2021/04/15 07:51:46;;;;;;;11.77;9.93;;;;;;;5.52;68.70;100225.38;4895699;29;20031;-74
2021/04/15 07:54:52;;;;;;;12.60;9.38;;;;;;;5.53;68.67;100218.38;4894391;29;20116;-74
2021/04/15 07:58:01;;;;;;;10.15;8.35;;;;;;;5.53;68.72;100234.94;4891316;29;20052;-70
2021/04/15 08:00:55;;;;;;;9.88;8.38;;;;;;;5.55;68.64;100227.84;4892681;29;20052;-69
2021/04/15 08:03:49;;;;;;;16.65;12.27;;;;;;;5.59;68.90;100231.16;4931969;28;20205;-75
2021/04/15 08:06:29;;;;;;;21.85;16.80;;;;;;;5.58;68.66;100233.84;4939364;28;20193;-74
2021/04/15 08:09:24;;;;;;;20.52;13.15;;;;;;;5.63;68.97;100231.84;4930548;29;20055;-73
2021/04/15 08:12:03;;;;;;;15.95;12.32;;;;;;;5.66;68.91;100231.69;4932600;29;20296;-73
2021/04/15 08:14:53;;;;;;;15.40;10.35;;;;;;;5.80;68.93;100226.56;4936447;29;20044;-73
2021/04/15 08:17:44;;;;;;;12.82;11.02;;;;;;;5.93;68.85;100230.22;4936852;29;20079;-77
2021/04/15 08:20:41;;;;;;;9.38;8.32;;;;;;;6.05;68.71;100223.50;4934136;29;20300;-77
2021/04/15 08:23:32;;;;;;;;;;;;;;;6.31;68.14;100223.84;4934591;29;20660;-74
2021/04/15 08:26:14;;;;;;;9.48;8.43;;;;;;;6.06;68.00;100227.81;4926463;29;20507;-73
2021/04/15 08:28:56;;;;;;;9.70;7.43;;;;;;;6.09;68.54;100224.19;4922890;29;20059;-74
2021/04/15 08:31:30;;;;;;;8.70;7.85;;;;;;;6.15;68.49;100229.09;4936164;29;20071;-73
2021/04/15 08:34:24;;;;;;;9.48;8.20;;;;;;;6.30;68.27;100222.16;4919066;29;20052;-75
2021/04/15 08:37:07;;;;;;;9.25;6.97;;;;;;;6.16;68.87;100228.16;4917867;29;20697;-74
2021/04/15 08:39:36;;;;;;;8.70;7.82;;;;;;;6.11;69.11;100228.41;4915156;29;20656;-72
2021/04/15 08:42:18;;;;;;;8.30;6.15;;;;;;;6.18;68.86;100228.09;4915749;29;20115;-73
2021/04/15 08:45:08;;;;;;;6.13;5.53;;;;;;;6.24;67.83;100223.34;4912098;29;20686;-75
2021/04/15 08:48:01;;;;;;;5.95;5.25;;;;;;;6.25;67.92;100225.03;4918961;29;20048;-69
2021/04/15 08:50:39;;;;;;;6.65;5.95;;;;;;;6.36;67.46;100226.22;4909188;29;20108;-71
2021/04/15 08:53:23;;;;;;;5.53;4.22;;;;;;;6.31;67.57;100222.06;4911181;29;20079;-72
2021/04/15 08:55:56;;;;;;;7.05;5.68;;;;;;;6.36;67.77;100223.63;4913766;29;20040;-72
2021/04/15 08:58:54;;;;;;;7.22;5.43;;;;;;;6.42;66.78;100231.13;4915104;29;20059;-73
2021/04/15 09:01:29;;;;;;;7.07;5.57;;;;;;;6.34;67.46;100225.44;4915039;29;20113;-74
2021/04/15 09:04:05;;;;;;;7.18;5.82;;;;;;;6.49;66.73;100228.06;4915332;29;20044;-76
2021/04/15 09:06:40;;;;;;;7.78;6.63;;;;;;;6.47;66.82;100224.69;4915675;29;20103;-76
2021/04/15 09:09:20;;;;;;;4.68;4.18;;;;;;;6.37;67.39;100223.50;4914414;29;20131;-74
2021/04/15 09:12:02;;;;;;;6.53;4.93;;;;;;;6.37;67.49;100227.91;4912183;29;20059;-74
2021/04/15 09:14:40;;;;;;;6.25;5.32;;;;;;;6.30;67.67;100222.16;4911963;29;20052;-75
2021/04/15 09:17:12;;;;;;;9.73;6.82;;;;;;;6.37;68.18;100220.03;4912938;29;20048;-73
2021/04/15 09:19:52;;;;;;;7.60;4.90;;;;;;;6.49;67.87;100219.34;4913832;29;20470;-71
2021/04/15 09:22:37;;;;;;;8.98;6.68;;;;;;;6.55;67.23;100216.38;4940532;29;20106;-73
2021/04/15 09:25:06;;;;;;;9.55;7.10;;;;;;;6.52;67.92;100219.19;4952584;29;20103;-72
2021/04/15 09:27:52;;;;;;;12.65;9.98;;;;;;;6.65;68.20;100221.97;4954215;29;20134;-73
2021/04/15 09:30:38;;;;;;;9.50;6.83;;;;;;;6.51;67.31;100210.47;4937510;29;20107;-75
2021/04/15 09:33:24;;;;;;;7.53;6.70;;;;;;;6.44;67.13;100219.59;4933111;29;20047;-77
2021/04/15 09:36:04;;;;;;;6.97;6.18;;;;;;;6.45;66.99;100220.47;4933167;29;20114;-81
2021/04/15 09:38:55;;;;;;;8.05;7.03;;;;;;;6.42;66.51;100220.63;4932275;29;20055;-75
2021/04/15 09:41:52;;;;;;;8.65;6.95;;;;;;;6.48;67.44;100225.53;4939398;29;20095;-75
2021/04/15 09:44:39;;;;;;;10.98;7.05;;;;;;;6.61;66.47;100220.44;4883200;29;20738;-76
2021/04/15 09:47:29;;;;;;;8.52;7.65;;;;;;;6.62;66.32;100228.22;4806554;29;20168;-76
2021/04/15 09:50:20;;;;;;;7.90;6.10;;;;;;;6.64;65.63;100220.25;4807769;29;20074;-77
2021/04/15 09:53:05;;;;;;;9.60;8.10;;;;;;;6.57;66.48;100224.16;4789959;29;20054;-78
2021/04/15 09:55:45;;;;;;;8.45;7.57;;;;;;;6.59;66.67;100228.41;4784192;29;20062;-77
2021/04/15 09:58:23;;;;;;;10.10;7.40;;;;;;;6.72;66.99;100225.06;4804514;29;20739;-76
2021/04/15 10:00:52;;;;;;;10.07;6.97;;;;;;;6.65;66.20;100222.81;4804996;29;20093;-75
2021/04/15 10:03:27;;;;;;;8.38;7.53;;;;;;;6.63;66.73;100219.44;4804317;29;20125;-73
2021/04/15 10:06:16;;;;;;;12.18;10.85;;;;;;;6.62;66.46;100215.09;4804866;29;20071;-73
2021/04/15 10:09:08;;;;;;;11.75;9.35;;;;;;;6.74;67.19;100221.44;4789906;29;20485;-74
2021/04/15 10:12:00;;;;;;;12.18;8.88;;;;;;;6.83;66.94;100222.69;4786559;29;20057;-72
2021/04/15 10:14:46;;;;;;;9.63;8.05;;;;;;;6.91;66.51;100220.47;4789413;29;20095;-73
2021/04/15 10:17:25;;;;;;;10.35;8.52;;;;;;;7.04;66.41;100228.47;4800484;29;20059;-78
2021/04/15 10:20:29;;;;;;;8.10;6.72;;;;;;;6.87;66.83;100222.41;4811342;29;20062;-73
2021/04/15 10:23:28;;;;;;;9.43;7.97;;;;;;;6.72;66.67;100232.94;4831342;29;20209;-74
2021/04/15 10:25:58;;;;;;;9.13;7.03;;;;;;;6.81;66.67;100224.56;4885838;29;20048;-72
2021/04/15 10:28:45;;;;;;;11.93;7.57;;;;;;;6.92;67.09;100229.22;4897738;29;20052;-72
2021/04/15 10:31:28;;;;;;;7.28;6.50;;;;;;;6.88;66.70;100216.25;4906775;29;20052;-74
2021/04/15 10:34:28;;;;;;;12.35;7.88;;;;;;;6.91;66.81;100225.72;4905644;29;20052;-75
2021/04/15 10:36:57;;;;;;;14.40;9.95;;;;;;;6.88;66.70;100218.88;4827652;29;20082;-76
2021/04/15 10:39:55;;;;;;;10.68;7.38;;;;;;;6.81;67.62;100221.94;4830882;29;20042;-78
2021/04/15 10:43:19;;;;;;;11.43;8.95;;;;;;;6.80;67.24;100226.34;4832498;29;20058;-75
2021/04/15 10:46:09;;;;;;;10.45;7.78;;;;;;;6.74;66.46;100217.97;4834037;29;20719;-81
2021/04/15 10:48:43;;;;;;;12.80;10.02;;;;;;;6.67;66.97;100220.94;4820222;29;20123;-74
2021/04/15 10:51:19;;;;;;;10.65;9.07;;;;;;;6.68;67.31;100222.63;4818544;29;20051;-74
2021/04/15 10:53:50;;;;;;;10.77;8.38;;;;;;;6.72;67.51;100222.44;4812642;29;20106;-75
2021/04/15 10:56:43;;;;;;;13.90;9.35;;;;;;;6.79;67.71;100222.03;4815282;29;20054;-74
2021/04/15 10:59:26;;;;;;;11.77;9.93;;;;;;;6.89;67.19;100224.97;4819025;29;20135;-76
2021/04/15 11:02:42;;;;;;;10.35;8.20;;;;;;;6.84;67.12;100222.63;4818748;29;20046;-79
2021/04/15 11:05:27;;;;;;;9.60;8.20;;;;;;;6.82;66.31;100221.00;4781400;29;20062;-74
2021/04/15 11:08:09;;;;;;;10.27;8.70;;;;;;;6.69;67.14;100218.22;4795876;29;20125;-73
2021/04/15 11:10:37;;;;;;;9.00;8.10;;;;;;;6.68;66.98;100229.66;4797650;29;20055;-72
2021/04/15 11:13:12;;;;;;;9.07;8.00;;;;;;;6.63;67.00;100224.69;4800257;29;20093;-74
2021/04/15 11:15:42;;;;;;;8.10;6.93;;;;;;;6.69;66.96;100226.94;4849872;29;20054;-72
2021/04/15 11:18:13;;;;;;;9.95;7.20;;;;;;;6.78;66.62;100227.38;4848431;29;20049;-73
2021/04/15 11:20:42;;;;;;;7.72;6.47;;;;;;;6.76;66.16;100234.50;4851821;29;20111;-70
2021/04/15 11:23:26;;;;;;;10.75;7.88;;;;;;;6.82;66.41;100226.25;4855899;29;20173;-73
2021/04/15 11:26:09;;;;;;;7.47;6.67;;;;;;;6.84;66.54;100234.88;4852514;29;20056;-73
2021/04/15 11:28:36;;;;;;;9.30;7.72;;;;;;;6.92;66.67;100230.03;4858386;29;20056;-74
2021/04/15 11:31:18;;;;;;;11.05;8.35;;;;;;;7.07;66.90;100234.38;4853670;29;20090;-78
2021/04/15 11:33:47;;;;;;;14.75;10.20;;;;;;;7.12;66.33;100230.66;4855004;29;20049;-71
2021/04/15 11:36:17;;;;;;;15.27;12.30;;;;;;;6.99;66.52;100230.53;4886126;29;20150;-77
2021/04/15 11:38:46;;;;;;;15.98;10.85;;;;;;;6.92;66.40;100232.66;4909438;29;20150;-75
2021/04/15 11:41:17;;;;;;;11.10;9.70;;;;;;;6.86;66.55;100235.63;4908130;29;20044;-71
2021/04/15 11:43:46;;;;;;;17.67;11.45;;;;;;;6.90;66.46;100231.91;4908327;29;20286;-75
2021/04/15 11:46:17;;;;;;;10.05;6.65;;;;;;;6.89;66.34;100235.47;4911470;29;20048;-71
2021/04/15 11:48:43;;;;;;;25.70;15.52;;;;;;;6.94;66.54;100237.84;4928606;29;20048;-71
2021/04/15 11:51:15;;;;;;;20.88;16.10;;;;;;;7.00;66.23;100235.69;4923305;29;20051;-72
2021/04/15 11:54:11;;;;;;;10.48;8.63;;;;;;;6.97;66.72;100235.00;4923249;29;20062;-71
2021/04/15 11:56:38;;;;;;;13.65;9.93;;;;;;;7.07;66.39;100231.75;4885549;29;20449;-73
2021/04/15 11:59:18;;;;;;;16.85;14.45;;;;;;;7.03;66.67;100237.31;4887403;29;20051;-73
2021/04/15 12:01:45;;;;;;;17.98;13.60;;;;;;;7.01;66.19;100237.38;4887672;29;20049;-72
2021/04/15 12:04:18;;;;;;;11.20;9.68;;;;;;;7.04;65.84;100238.97;4887085;29;20060;-74
2021/04/15 12:06:53;;;;;;;11.02;7.93;;;;;;;7.04;65.92;100238.97;4886088;29;20056;-73
2021/04/15 12:09:24;;;;;;;9.00;8.05;;;;;;;7.02;65.57;100235.59;4884265;29;20053;-74